sensor_id;sensor_type;location;lat;lon;timestamp;P1;durP1;ratioP1;P2;durP2;ratioP2
3036;SDS011;1528;52.550;13.408;2023-11-21T00:01:49;22.50;;;20.77;;
3036;SDS011;1528;52.550;13.408;2023-11-21T00:04:35;22.03;;;20.13;;
3036;SDS011;1528;52.550;13.408;2023-11-21T00:07:22;21.33;;;19.47;;
3036;SDS011;1528;52.550;13.408;2023-11-21T00:10:08;22.73;;;20.73;;
3036;SDS011;1528;52.550;13.408;2023-11-21T00:12:54;24.73;;;22.73;;
3036;SDS011;1528;52.550;13.408;2023-11-21T00:15:40;24.27;;;22.20;;
3036;SDS011;1528;52.550;13.408;2023-11-21T00:18:26;24.43;;;22.47;;
3036;SDS011;1528;52.550;13.408;2023-11-21T00:21:12;23.07;;;20.97;;
3036;SDS011;1528;52.550;13.408;2023-11-21T00:23:58;27.23;;;24.60;;
3036;SDS011;1528;52.550;13.408;2023-11-21T00:26:44;26.13;;;23.73;;
3036;SDS011;1528;52.550;13.408;2023-11-21T00:29:32;22.93;;;20.90;;
3036;SDS011;1528;52.550;13.408;2023-11-21T00:32:18;25.07;;;22.87;;
3036;SDS011;1528;52.550;13.408;2023-11-21T00:35:04;26.60;;;23.97;;
3036;SDS011;1528;52.550;13.408;2023-11-21T00:37:50;26.33;;;23.80;;
3036;SDS011;1528;52.550;13.408;2023-11-21T00:40:37;29.43;;;25.73;;
3036;SDS011;1528;52.550;13.408;2023-11-21T00:43:22;29.33;;;25.73;;
3036;SDS011;1528;52.550;13.408;2023-11-21T00:46:08;29.97;;;26.90;;
3036;SDS011;1528;52.550;13.408;2023-11-21T00:48:53;28.93;;;26.00;;
3036;SDS011;1528;52.550;13.408;2023-11-21T00:51:39;28.73;;;24.63;;
3036;SDS011;1528;52.550;13.408;2023-11-21T00:54:25;35.43;;;29.33;;
3036;SDS011;1528;52.550;13.408;2023-11-21T00:57:13;33.40;;;28.57;;
3036;SDS011;1528;52.550;13.408;2023-11-21T00:59:59;45.83;;;34.93;;
3036;SDS011;1528;52.550;13.408;2023-11-21T01:02:45;39.03;;;34.10;;
3036;SDS011;1528;52.550;13.408;2023-11-21T01:05:30;41.47;;;34.27;;
3036;SDS011;1528;52.550;13.408;2023-11-21T01:08:16;42.50;;;34.57;;
3036;SDS011;1528;52.550;13.408;2023-11-21T01:11:01;48.90;;;38.70;;
3036;SDS011;1528;52.550;13.408;2023-11-21T01:13:48;44.30;;;36.93;;
3036;SDS011;1528;52.550;13.408;2023-11-21T01:16:34;50.07;;;36.70;;
3036;SDS011;1528;52.550;13.408;2023-11-21T01:19:20;49.20;;;36.90;;
3036;SDS011;1528;52.550;13.408;2023-11-21T01:22:05;48.23;;;36.20;;
3036;SDS011;1528;52.550;13.408;2023-11-21T01:24:52;40.57;;;35.13;;
3036;SDS011;1528;52.550;13.408;2023-11-21T01:27:38;37.30;;;33.10;;
3036;SDS011;1528;52.550;13.408;2023-11-21T01:30:25;42.00;;;34.10;;
3036;SDS011;1528;52.550;13.408;2023-11-21T01:33:11;46.53;;;33.30;;
3036;SDS011;1528;52.550;13.408;2023-11-21T01:35:57;41.47;;;33.80;;
3036;SDS011;1528;52.550;13.408;2023-11-21T01:38:43;35.37;;;29.50;;
3036;SDS011;1528;52.550;13.408;2023-11-21T01:41:29;29.23;;;24.77;;
3036;SDS011;1528;52.550;13.408;2023-11-21T01:44:15;37.67;;;30.20;;
3036;SDS011;1528;52.550;13.408;2023-11-21T01:47:02;35.40;;;29.27;;
3036;SDS011;1528;52.550;13.408;2023-11-21T01:49:48;27.47;;;24.50;;
3036;SDS011;1528;52.550;13.408;2023-11-21T01:52:34;26.13;;;23.17;;
3036;SDS011;1528;52.550;13.408;2023-11-21T01:55:20;26.80;;;24.20;;
3036;SDS011;1528;52.550;13.408;2023-11-21T01:58:06;26.53;;;23.50;;
3036;SDS011;1528;52.550;13.408;2023-11-21T02:00:53;29.07;;;26.23;;
3036;SDS011;1528;52.550;13.408;2023-11-21T02:03:40;26.70;;;23.93;;
3036;SDS011;1528;52.550;13.408;2023-11-21T02:06:26;23.90;;;21.53;;
3036;SDS011;1528;52.550;13.408;2023-11-21T02:09:15;24.03;;;21.70;;
3036;SDS011;1528;52.550;13.408;2023-11-21T02:12:01;24.47;;;21.83;;
3036;SDS011;1528;52.550;13.408;2023-11-21T02:14:47;21.50;;;19.43;;
3036;SDS011;1528;52.550;13.408;2023-11-21T02:17:34;23.07;;;21.13;;
3036;SDS011;1528;52.550;13.408;2023-11-21T02:20:21;20.97;;;19.03;;
3036;SDS011;1528;52.550;13.408;2023-11-21T02:23:09;21.77;;;19.80;;
3036;SDS011;1528;52.550;13.408;2023-11-21T02:25:56;23.27;;;21.17;;
3036;SDS011;1528;52.550;13.408;2023-11-21T02:28:43;19.67;;;18.00;;
3036;SDS011;1528;52.550;13.408;2023-11-21T02:31:28;19.20;;;17.43;;
3036;SDS011;1528;52.550;13.408;2023-11-21T02:34:16;19.40;;;17.70;;
3036;SDS011;1528;52.550;13.408;2023-11-21T02:37:02;21.50;;;19.43;;
3036;SDS011;1528;52.550;13.408;2023-11-21T02:39:51;22.10;;;20.40;;
3036;SDS011;1528;52.550;13.408;2023-11-21T02:42:36;20.40;;;19.00;;
3036;SDS011;1528;52.550;13.408;2023-11-21T02:45:22;18.30;;;16.70;;
3036;SDS011;1528;52.550;13.408;2023-11-21T02:48:07;20.30;;;18.70;;
3036;SDS011;1528;52.550;13.408;2023-11-21T02:50:53;20.70;;;18.70;;
3036;SDS011;1528;52.550;13.408;2023-11-21T02:53:38;18.03;;;16.60;;
3036;SDS011;1528;52.550;13.408;2023-11-21T02:56:26;20.10;;;18.63;;
3036;SDS011;1528;52.550;13.408;2023-11-21T02:59:11;18.80;;;17.40;;
3036;SDS011;1528;52.550;13.408;2023-11-21T03:01:59;17.27;;;15.87;;
3036;SDS011;1528;52.550;13.408;2023-11-21T03:08:39;17.83;;;16.30;;
3036;SDS011;1528;52.550;13.408;2023-11-21T03:11:27;16.33;;;15.03;;
3036;SDS011;1528;52.550;13.408;2023-11-21T03:14:13;18.67;;;17.23;;
3036;SDS011;1528;52.550;13.408;2023-11-21T03:16:58;17.73;;;16.53;;
3036;SDS011;1528;52.550;13.408;2023-11-21T03:19:44;18.47;;;17.10;;
3036;SDS011;1528;52.550;13.408;2023-11-21T03:22:30;17.77;;;16.27;;
3036;SDS011;1528;52.550;13.408;2023-11-21T03:25:15;16.47;;;15.20;;
3036;SDS011;1528;52.550;13.408;2023-11-21T03:28:03;16.87;;;15.57;;
3036;SDS011;1528;52.550;13.408;2023-11-21T03:30:49;17.67;;;16.37;;
3036;SDS011;1528;52.550;13.408;2023-11-21T03:33:34;14.90;;;13.80;;
3036;SDS011;1528;52.550;13.408;2023-11-21T03:36:20;19.30;;;18.00;;
3036;SDS011;1528;52.550;13.408;2023-11-21T03:39:05;16.73;;;15.40;;
3036;SDS011;1528;52.550;13.408;2023-11-21T03:41:51;17.67;;;16.47;;
3036;SDS011;1528;52.550;13.408;2023-11-21T03:44:38;14.93;;;13.83;;
3036;SDS011;1528;52.550;13.408;2023-11-21T03:47:23;16.63;;;15.43;;
3036;SDS011;1528;52.550;13.408;2023-11-21T03:50:10;18.03;;;16.63;;
3036;SDS011;1528;52.550;13.408;2023-11-21T03:56:48;19.43;;;17.90;;
3036;SDS011;1528;52.550;13.408;2023-11-21T03:59:34;19.37;;;17.93;;
3036;SDS011;1528;52.550;13.408;2023-11-21T04:02:21;18.00;;;16.70;;
3036;SDS011;1528;52.550;13.408;2023-11-21T04:05:08;17.80;;;16.57;;
3036;SDS011;1528;52.550;13.408;2023-11-21T04:07:54;18.57;;;17.07;;
3036;SDS011;1528;52.550;13.408;2023-11-21T04:10:39;17.20;;;15.90;;
3036;SDS011;1528;52.550;13.408;2023-11-21T04:13:26;16.77;;;15.53;;
3036;SDS011;1528;52.550;13.408;2023-11-21T04:16:11;17.93;;;16.50;;
3036;SDS011;1528;52.550;13.408;2023-11-21T04:18:58;18.50;;;16.80;;
3036;SDS011;1528;52.550;13.408;2023-11-21T04:21:44;16.80;;;15.60;;
3036;SDS011;1528;52.550;13.408;2023-11-21T04:24:29;16.27;;;15.07;;
3036;SDS011;1528;52.550;13.408;2023-11-21T04:27:15;18.17;;;16.87;;
3036;SDS011;1528;52.550;13.408;2023-11-21T04:30:01;14.60;;;13.50;;
3036;SDS011;1528;52.550;13.408;2023-11-21T04:32:47;17.10;;;15.80;;
3036;SDS011;1528;52.550;13.408;2023-11-21T04:35:35;16.97;;;15.60;;
3036;SDS011;1528;52.550;13.408;2023-11-21T04:38:21;16.03;;;14.63;;
3036;SDS011;1528;52.550;13.408;2023-11-21T04:41:07;15.57;;;14.33;;
3036;SDS011;1528;52.550;13.408;2023-11-21T04:43:53;16.57;;;15.37;;
3036;SDS011;1528;52.550;13.408;2023-11-21T04:46:38;17.33;;;16.10;;
3036;SDS011;1528;52.550;13.408;2023-11-21T04:49:24;17.63;;;16.43;;
3036;SDS011;1528;52.550;13.408;2023-11-21T04:52:11;19.13;;;17.80;;
3036;SDS011;1528;52.550;13.408;2023-11-21T04:54:56;16.60;;;15.40;;
3036;SDS011;1528;52.550;13.408;2023-11-21T04:57:42;15.33;;;14.13;;
3036;SDS011;1528;52.550;13.408;2023-11-21T05:00:29;13.80;;;12.80;;
3036;SDS011;1528;52.550;13.408;2023-11-21T05:03:14;14.63;;;13.43;;
3036;SDS011;1528;52.550;13.408;2023-11-21T05:06:00;15.13;;;14.13;;
3036;SDS011;1528;52.550;13.408;2023-11-21T05:08:47;16.33;;;15.13;;
3036;SDS011;1528;52.550;13.408;2023-11-21T05:11:32;15.40;;;14.20;;
3036;SDS011;1528;52.550;13.408;2023-11-21T05:14:18;18.80;;;17.60;;
3036;SDS011;1528;52.550;13.408;2023-11-21T05:17:04;15.90;;;14.57;;
3036;SDS011;1528;52.550;13.408;2023-11-21T05:19:49;16.13;;;15.03;;
3036;SDS011;1528;52.550;13.408;2023-11-21T05:22:35;17.93;;;16.53;;
3036;SDS011;1528;52.550;13.408;2023-11-21T05:25:22;15.73;;;14.50;;
3036;SDS011;1528;52.550;13.408;2023-11-21T05:28:07;17.20;;;16.10;;
3036;SDS011;1528;52.550;13.408;2023-11-21T05:30:53;16.13;;;15.03;;
3036;SDS011;1528;52.550;13.408;2023-11-21T05:33:39;16.30;;;15.10;;
3036;SDS011;1528;52.550;13.408;2023-11-21T05:36:25;15.00;;;14.00;;
3036;SDS011;1528;52.550;13.408;2023-11-21T05:39:13;14.50;;;13.50;;
3036;SDS011;1528;52.550;13.408;2023-11-21T05:42:02;15.57;;;14.47;;
3036;SDS011;1528;52.550;13.408;2023-11-21T05:44:48;14.23;;;13.23;;
3036;SDS011;1528;52.550;13.408;2023-11-21T05:47:34;14.97;;;13.87;;
3036;SDS011;1528;52.550;13.408;2023-11-21T05:50:21;15.40;;;14.30;;
3036;SDS011;1528;52.550;13.408;2023-11-21T05:53:06;15.17;;;13.77;;
3036;SDS011;1528;52.550;13.408;2023-11-21T05:55:54;14.00;;;13.00;;
3036;SDS011;1528;52.550;13.408;2023-11-21T05:58:41;15.57;;;14.30;;
3036;SDS011;1528;52.550;13.408;2023-11-21T06:01:26;15.43;;;14.33;;
3036;SDS011;1528;52.550;13.408;2023-11-21T06:04:12;14.43;;;13.37;;
3036;SDS011;1528;52.550;13.408;2023-11-21T06:06:58;15.47;;;14.37;;
3036;SDS011;1528;52.550;13.408;2023-11-21T06:09:44;15.27;;;14.03;;
3036;SDS011;1528;52.550;13.408;2023-11-21T06:12:30;14.03;;;13.03;;
3036;SDS011;1528;52.550;13.408;2023-11-21T06:15:20;15.30;;;14.30;;
3036;SDS011;1528;52.550;13.408;2023-11-21T06:18:06;16.40;;;15.17;;
3036;SDS011;1528;52.550;13.408;2023-11-21T06:20:53;13.27;;;12.37;;
3036;SDS011;1528;52.550;13.408;2023-11-21T06:23:39;14.53;;;13.43;;
3036;SDS011;1528;52.550;13.408;2023-11-21T06:26:25;14.60;;;13.60;;
3036;SDS011;1528;52.550;13.408;2023-11-21T06:29:12;13.37;;;12.40;;
3036;SDS011;1528;52.550;13.408;2023-11-21T06:31:59;13.07;;;12.13;;
3036;SDS011;1528;52.550;13.408;2023-11-21T06:34:44;13.40;;;12.50;;
3036;SDS011;1528;52.550;13.408;2023-11-21T06:37:30;14.27;;;13.37;;
3036;SDS011;1528;52.550;13.408;2023-11-21T06:40:16;12.87;;;11.97;;
3036;SDS011;1528;52.550;13.408;2023-11-21T06:43:03;12.90;;;12.00;;
3036;SDS011;1528;52.550;13.408;2023-11-21T06:45:48;12.90;;;12.10;;
3036;SDS011;1528;52.550;13.408;2023-11-21T06:48:35;14.30;;;13.30;;
3036;SDS011;1528;52.550;13.408;2023-11-21T06:51:22;14.43;;;13.43;;
3036;SDS011;1528;52.550;13.408;2023-11-21T06:54:07;14.67;;;13.67;;
3036;SDS011;1528;52.550;13.408;2023-11-21T06:56:53;13.63;;;12.63;;
3036;SDS011;1528;52.550;13.408;2023-11-21T06:59:40;13.93;;;12.73;;
3036;SDS011;1528;52.550;13.408;2023-11-21T07:02:25;14.27;;;13.37;;
3036;SDS011;1528;52.550;13.408;2023-11-21T07:05:13;15.60;;;14.60;;
3036;SDS011;1528;52.550;13.408;2023-11-21T07:07:59;13.90;;;13.00;;
3036;SDS011;1528;52.550;13.408;2023-11-21T07:10:47;13.70;;;12.70;;
3036;SDS011;1528;52.550;13.408;2023-11-21T07:13:33;13.83;;;12.73;;
3036;SDS011;1528;52.550;13.408;2023-11-21T07:16:19;14.37;;;13.33;;
3036;SDS011;1528;52.550;13.408;2023-11-21T07:19:06;13.40;;;12.40;;
3036;SDS011;1528;52.550;13.408;2023-11-21T07:21:53;13.87;;;12.87;;
3036;SDS011;1528;52.550;13.408;2023-11-21T07:24:39;11.93;;;11.13;;
3036;SDS011;1528;52.550;13.408;2023-11-21T07:27:25;14.47;;;13.57;;
3036;SDS011;1528;52.550;13.408;2023-11-21T07:30:11;14.53;;;13.53;;
3036;SDS011;1528;52.550;13.408;2023-11-21T07:32:57;12.30;;;11.43;;
3036;SDS011;1528;52.550;13.408;2023-11-21T07:35:43;15.27;;;14.30;;
3036;SDS011;1528;52.550;13.408;2023-11-21T07:38:30;12.83;;;11.83;;
3036;SDS011;1528;52.550;13.408;2023-11-21T07:41:17;14.03;;;13.13;;
3036;SDS011;1528;52.550;13.408;2023-11-21T07:44:03;13.87;;;12.97;;
3036;SDS011;1528;52.550;13.408;2023-11-21T07:46:49;13.63;;;12.77;;
3036;SDS011;1528;52.550;13.408;2023-11-21T07:49:35;13.40;;;12.50;;
3036;SDS011;1528;52.550;13.408;2023-11-21T07:52:21;14.57;;;13.57;;
3036;SDS011;1528;52.550;13.408;2023-11-21T07:55:08;12.27;;;11.37;;
3036;SDS011;1528;52.550;13.408;2023-11-21T07:57:55;14.70;;;13.73;;
3036;SDS011;1528;52.550;13.408;2023-11-21T08:00:40;12.17;;;11.47;;
3036;SDS011;1528;52.550;13.408;2023-11-21T08:03:26;11.17;;;10.40;;
3036;SDS011;1528;52.550;13.408;2023-11-21T08:06:13;12.27;;;11.37;;
3036;SDS011;1528;52.550;13.408;2023-11-21T08:08:58;10.90;;;10.20;;
3036;SDS011;1528;52.550;13.408;2023-11-21T08:15:26;10.73;;;10.00;;
3036;SDS011;1528;52.550;13.408;2023-11-21T08:18:12;12.67;;;11.87;;
3036;SDS011;1528;52.550;13.408;2023-11-21T08:20:58;11.60;;;10.80;;
3036;SDS011;1528;52.550;13.408;2023-11-21T08:23:43;11.07;;;10.37;;
3036;SDS011;1528;52.550;13.408;2023-11-21T08:26:29;11.83;;;11.13;;
3036;SDS011;1528;52.550;13.408;2023-11-21T08:29:15;11.73;;;11.03;;
3036;SDS011;1528;52.550;13.408;2023-11-21T08:32:02;11.03;;;10.33;;
3036;SDS011;1528;52.550;13.408;2023-11-21T08:34:49;11.70;;;11.00;;
3036;SDS011;1528;52.550;13.408;2023-11-21T08:37:35;12.37;;;11.63;;
3036;SDS011;1528;52.550;13.408;2023-11-21T08:40:21;11.43;;;10.63;;
3036;SDS011;1528;52.550;13.408;2023-11-21T08:43:07;12.50;;;11.60;;
3036;SDS011;1528;52.550;13.408;2023-11-21T08:45:53;11.20;;;10.40;;
3036;SDS011;1528;52.550;13.408;2023-11-21T08:48:40;12.37;;;11.47;;
3036;SDS011;1528;52.550;13.408;2023-11-21T08:51:27;12.13;;;11.23;;
3036;SDS011;1528;52.550;13.408;2023-11-21T08:54:14;12.67;;;11.60;;
3036;SDS011;1528;52.550;13.408;2023-11-21T08:56:59;13.57;;;12.40;;
3036;SDS011;1528;52.550;13.408;2023-11-21T09:03:25;13.30;;;12.30;;
3036;SDS011;1528;52.550;13.408;2023-11-21T09:06:13;14.53;;;13.33;;
3036;SDS011;1528;52.550;13.408;2023-11-21T09:08:59;14.73;;;13.53;;
3036;SDS011;1528;52.550;13.408;2023-11-21T09:11:45;15.13;;;13.70;;
3036;SDS011;1528;52.550;13.408;2023-11-21T09:14:32;15.10;;;13.90;;
3036;SDS011;1528;52.550;13.408;2023-11-21T09:17:18;13.90;;;12.80;;
3036;SDS011;1528;52.550;13.408;2023-11-21T09:20:05;15.00;;;13.80;;
3036;SDS011;1528;52.550;13.408;2023-11-21T09:22:55;15.90;;;14.50;;
3036;SDS011;1528;52.550;13.408;2023-11-21T09:25:40;14.90;;;13.47;;
3036;SDS011;1528;52.550;13.408;2023-11-21T09:28:29;13.60;;;12.30;;
3036;SDS011;1528;52.550;13.408;2023-11-21T09:31:15;13.83;;;12.67;;
3036;SDS011;1528;52.550;13.408;2023-11-21T09:34:01;13.53;;;11.87;;
3036;SDS011;1528;52.550;13.408;2023-11-21T09:36:46;13.70;;;12.30;;
3036;SDS011;1528;52.550;13.408;2023-11-21T09:39:34;13.30;;;11.97;;
3036;SDS011;1528;52.550;13.408;2023-11-21T09:42:20;13.93;;;12.73;;
3036;SDS011;1528;52.550;13.408;2023-11-21T09:45:13;13.97;;;12.67;;
3036;SDS011;1528;52.550;13.408;2023-11-21T09:48:03;12.80;;;11.70;;
3036;SDS011;1528;52.550;13.408;2023-11-21T09:50:50;11.90;;;10.90;;
3036;SDS011;1528;52.550;13.408;2023-11-21T09:53:36;12.10;;;11.00;;
3036;SDS011;1528;52.550;13.408;2023-11-21T09:56:23;11.93;;;10.87;;
3036;SDS011;1528;52.550;13.408;2023-11-21T09:59:10;12.43;;;11.40;;
3036;SDS011;1528;52.550;13.408;2023-11-21T10:01:59;10.57;;;9.77;;
3036;SDS011;1528;52.550;13.408;2023-11-21T10:04:46;11.37;;;10.47;;
3036;SDS011;1528;52.550;13.408;2023-11-21T10:07:32;12.90;;;11.90;;
3036;SDS011;1528;52.550;13.408;2023-11-21T10:10:20;12.50;;;11.50;;
3036;SDS011;1528;52.550;13.408;2023-11-21T10:13:10;12.10;;;11.10;;
3036;SDS011;1528;52.550;13.408;2023-11-21T10:16:00;13.13;;;12.10;;
3036;SDS011;1528;52.550;13.408;2023-11-21T10:18:49;11.10;;;10.20;;
3036;SDS011;1528;52.550;13.408;2023-11-21T10:21:38;11.20;;;10.33;;
3036;SDS011;1528;52.550;13.408;2023-11-21T10:24:24;13.03;;;11.83;;
3036;SDS011;1528;52.550;13.408;2023-11-21T10:27:09;11.50;;;10.70;;
3036;SDS011;1528;52.550;13.408;2023-11-21T10:29:57;10.20;;;9.50;;
3036;SDS011;1528;52.550;13.408;2023-11-21T10:32:45;10.80;;;10.10;;
3036;SDS011;1528;52.550;13.408;2023-11-21T10:35:44;10.93;;;10.23;;
3036;SDS011;1528;52.550;13.408;2023-11-21T10:38:41;9.50;;;8.90;;
3036;SDS011;1528;52.550;13.408;2023-11-21T10:41:29;10.77;;;10.07;;
3036;SDS011;1528;52.550;13.408;2023-11-21T10:44:14;9.33;;;8.73;;
3036;SDS011;1528;52.550;13.408;2023-11-21T10:47:05;9.00;;;8.37;;
3036;SDS011;1528;52.550;13.408;2023-11-21T10:49:55;9.33;;;8.73;;
3036;SDS011;1528;52.550;13.408;2023-11-21T10:52:41;10.17;;;9.37;;
3036;SDS011;1528;52.550;13.408;2023-11-21T10:55:30;9.77;;;9.17;;
3036;SDS011;1528;52.550;13.408;2023-11-21T10:58:16;10.43;;;9.83;;
3036;SDS011;1528;52.550;13.408;2023-11-21T11:01:02;10.13;;;9.20;;
3036;SDS011;1528;52.550;13.408;2023-11-21T11:03:52;9.43;;;8.87;;
3036;SDS011;1528;52.550;13.408;2023-11-21T11:06:39;8.80;;;8.30;;
3036;SDS011;1528;52.550;13.408;2023-11-21T11:09:25;9.70;;;9.10;;
3036;SDS011;1528;52.550;13.408;2023-11-21T11:12:11;8.50;;;8.00;;
3036;SDS011;1528;52.550;13.408;2023-11-21T11:15:01;9.73;;;9.13;;
3036;SDS011;1528;52.550;13.408;2023-11-21T11:17:48;9.53;;;8.77;;
3036;SDS011;1528;52.550;13.408;2023-11-21T11:20:36;10.23;;;9.60;;
3036;SDS011;1528;52.550;13.408;2023-11-21T11:23:34;8.77;;;8.20;;
3036;SDS011;1528;52.550;13.408;2023-11-21T11:26:32;8.73;;;8.23;;
3036;SDS011;1528;52.550;13.408;2023-11-21T11:29:26;10.97;;;10.27;;
3036;SDS011;1528;52.550;13.408;2023-11-21T11:32:21;10.60;;;9.90;;
3036;SDS011;1528;52.550;13.408;2023-11-21T11:35:13;11.13;;;10.43;;
3036;SDS011;1528;52.550;13.408;2023-11-21T11:38:07;10.30;;;9.70;;
3036;SDS011;1528;52.550;13.408;2023-11-21T11:40:54;11.00;;;10.30;;
3036;SDS011;1528;52.550;13.408;2023-11-21T11:43:40;11.57;;;10.97;;
3036;SDS011;1528;52.550;13.408;2023-11-21T11:46:40;9.93;;;9.30;;
3036;SDS011;1528;52.550;13.408;2023-11-21T11:49:27;11.47;;;10.87;;
3036;SDS011;1528;52.550;13.408;2023-11-21T11:52:32;9.90;;;9.20;;
3036;SDS011;1528;52.550;13.408;2023-11-21T11:55:20;8.57;;;8.03;;
3036;SDS011;1528;52.550;13.408;2023-11-21T11:58:07;10.00;;;9.37;;
3036;SDS011;1528;52.550;13.408;2023-11-21T12:00:53;9.00;;;8.43;;
3036;SDS011;1528;52.550;13.408;2023-11-21T12:03:38;9.40;;;8.83;;
3036;SDS011;1528;52.550;13.408;2023-11-21T12:06:30;9.90;;;9.40;;
3036;SDS011;1528;52.550;13.408;2023-11-21T12:09:20;9.03;;;8.53;;
3036;SDS011;1528;52.550;13.408;2023-11-21T12:12:08;10.17;;;9.57;;
3036;SDS011;1528;52.550;13.408;2023-11-21T12:14:53;11.30;;;10.67;;
3036;SDS011;1528;52.550;13.408;2023-11-21T12:17:39;9.83;;;9.30;;
3036;SDS011;1528;52.550;13.408;2023-11-21T12:20:25;10.90;;;10.37;;
3036;SDS011;1528;52.550;13.408;2023-11-21T12:23:12;10.90;;;10.30;;
3036;SDS011;1528;52.550;13.408;2023-11-21T12:25:58;12.30;;;11.60;;
3036;SDS011;1528;52.550;13.408;2023-11-21T12:28:52;11.50;;;10.90;;
3036;SDS011;1528;52.550;13.408;2023-11-21T12:31:39;10.10;;;9.50;;
3036;SDS011;1528;52.550;13.408;2023-11-21T12:34:25;10.60;;;10.00;;
3036;SDS011;1528;52.550;13.408;2023-11-21T12:37:10;10.23;;;9.63;;
3036;SDS011;1528;52.550;13.408;2023-11-21T12:39:56;9.80;;;9.30;;
3036;SDS011;1528;52.550;13.408;2023-11-21T12:42:42;10.20;;;9.60;;
3036;SDS011;1528;52.550;13.408;2023-11-21T12:45:30;10.40;;;9.70;;
3036;SDS011;1528;52.550;13.408;2023-11-21T12:48:15;10.00;;;9.40;;
3036;SDS011;1528;52.550;13.408;2023-11-21T12:51:08;10.73;;;10.07;;
3036;SDS011;1528;52.550;13.408;2023-11-21T12:53:55;10.97;;;10.27;;
3036;SDS011;1528;52.550;13.408;2023-11-21T12:56:44;11.83;;;11.13;;
3036;SDS011;1528;52.550;13.408;2023-11-21T12:59:35;13.10;;;12.10;;
3036;SDS011;1528;52.550;13.408;2023-11-21T13:02:27;12.30;;;11.40;;
3036;SDS011;1528;52.550;13.408;2023-11-21T13:05:12;11.97;;;11.17;;
3036;SDS011;1528;52.550;13.408;2023-11-21T13:08:06;11.90;;;11.20;;
3036;SDS011;1528;52.550;13.408;2023-11-21T13:10:54;12.50;;;11.70;;
3036;SDS011;1528;52.550;13.408;2023-11-21T13:13:41;13.20;;;12.37;;
3036;SDS011;1528;52.550;13.408;2023-11-21T13:16:28;12.50;;;11.80;;
3036;SDS011;1528;52.550;13.408;2023-11-21T13:19:15;13.70;;;12.90;;
3036;SDS011;1528;52.550;13.408;2023-11-21T13:22:03;11.70;;;11.00;;
3036;SDS011;1528;52.550;13.408;2023-11-21T13:24:48;13.33;;;12.43;;
3036;SDS011;1528;52.550;13.408;2023-11-21T13:27:34;12.60;;;11.80;;
3036;SDS011;1528;52.550;13.408;2023-11-21T13:30:30;11.10;;;10.40;;
3036;SDS011;1528;52.550;13.408;2023-11-21T13:33:17;12.53;;;11.70;;
3036;SDS011;1528;52.550;13.408;2023-11-21T13:36:12;12.83;;;12.03;;
3036;SDS011;1528;52.550;13.408;2023-11-21T13:39:05;12.97;;;12.17;;
3036;SDS011;1528;52.550;13.408;2023-11-21T13:41:59;12.60;;;11.77;;
3036;SDS011;1528;52.550;13.408;2023-11-21T13:44:47;12.77;;;11.80;;
3036;SDS011;1528;52.550;13.408;2023-11-21T13:47:34;12.30;;;11.50;;
3036;SDS011;1528;52.550;13.408;2023-11-21T13:50:21;13.17;;;12.27;;
3036;SDS011;1528;52.550;13.408;2023-11-21T13:53:10;14.20;;;13.20;;
3036;SDS011;1528;52.550;13.408;2023-11-21T13:56:01;14.00;;;13.00;;
3036;SDS011;1528;52.550;13.408;2023-11-21T13:58:47;14.87;;;13.77;;
3036;SDS011;1528;52.550;13.408;2023-11-21T14:01:37;14.63;;;13.43;;
3036;SDS011;1528;52.550;13.408;2023-11-21T14:05:00;13.90;;;12.77;;
3036;SDS011;1528;52.550;13.408;2023-11-21T14:07:53;15.73;;;14.63;;
3036;SDS011;1528;52.550;13.408;2023-11-21T14:10:40;14.63;;;13.60;;
3036;SDS011;1528;52.550;13.408;2023-11-21T14:13:26;16.87;;;15.57;;
3036;SDS011;1528;52.550;13.408;2023-11-21T14:16:12;16.70;;;15.40;;
3036;SDS011;1528;52.550;13.408;2023-11-21T14:18:58;16.93;;;15.53;;
3036;SDS011;1528;52.550;13.408;2023-11-21T14:21:50;20.00;;;18.60;;
3036;SDS011;1528;52.550;13.408;2023-11-21T14:24:43;20.50;;;18.83;;
3036;SDS011;1528;52.550;13.408;2023-11-21T14:27:31;19.67;;;18.10;;
3036;SDS011;1528;52.550;13.408;2023-11-21T14:30:19;22.27;;;20.47;;
3036;SDS011;1528;52.550;13.408;2023-11-21T14:33:12;21.20;;;19.50;;
3036;SDS011;1528;52.550;13.408;2023-11-21T14:36:00;20.20;;;18.50;;
3036;SDS011;1528;52.550;13.408;2023-11-21T14:38:45;22.73;;;20.90;;
3036;SDS011;1528;52.550;13.408;2023-11-21T14:41:33;23.90;;;22.10;;
3036;SDS011;1528;52.550;13.408;2023-11-21T14:44:24;27.37;;;24.97;;
3036;SDS011;1528;52.550;13.408;2023-11-21T14:47:15;24.10;;;22.20;;
3036;SDS011;1528;52.550;13.408;2023-11-21T14:50:09;26.33;;;24.33;;
3036;SDS011;1528;52.550;13.408;2023-11-21T14:53:22;23.07;;;21.13;;
3036;SDS011;1528;52.550;13.408;2023-11-21T14:56:26;24.73;;;22.70;;
3036;SDS011;1528;52.550;13.408;2023-11-21T14:59:14;22.53;;;20.77;;
3036;SDS011;1528;52.550;13.408;2023-11-21T15:02:01;23.07;;;21.17;;
3036;SDS011;1528;52.550;13.408;2023-11-21T15:04:58;24.00;;;22.10;;
3036;SDS011;1528;52.550;13.408;2023-11-21T15:07:46;21.60;;;19.60;;
3036;SDS011;1528;52.550;13.408;2023-11-21T15:10:33;23.20;;;21.30;;
3036;SDS011;1528;52.550;13.408;2023-11-21T15:13:29;22.20;;;20.40;;
3036;SDS011;1528;52.550;13.408;2023-11-21T15:16:16;21.90;;;20.07;;
3036;SDS011;1528;52.550;13.408;2023-11-21T15:19:24;22.07;;;20.37;;
3036;SDS011;1528;52.550;13.408;2023-11-21T15:22:21;19.00;;;17.53;;
3036;SDS011;1528;52.550;13.408;2023-11-21T15:25:07;19.83;;;18.20;;
3036;SDS011;1528;52.550;13.408;2023-11-21T15:27:54;21.10;;;19.43;;
3036;SDS011;1528;52.550;13.408;2023-11-21T15:30:39;20.67;;;18.97;;
3036;SDS011;1528;52.550;13.408;2023-11-21T15:33:25;22.97;;;21.07;;
3036;SDS011;1528;52.550;13.408;2023-11-21T15:36:12;24.30;;;22.40;;
3036;SDS011;1528;52.550;13.408;2023-11-21T15:38:59;21.70;;;20.00;;
3036;SDS011;1528;52.550;13.408;2023-11-21T15:41:44;22.50;;;20.53;;
3036;SDS011;1528;52.550;13.408;2023-11-21T15:44:31;22.53;;;20.83;;
3036;SDS011;1528;52.550;13.408;2023-11-21T15:47:16;23.17;;;21.47;;
3036;SDS011;1528;52.550;13.408;2023-11-21T15:50:03;20.27;;;18.67;;
3036;SDS011;1528;52.550;13.408;2023-11-21T15:52:54;20.33;;;18.63;;
3036;SDS011;1528;52.550;13.408;2023-11-21T15:55:40;21.70;;;20.00;;
3036;SDS011;1528;52.550;13.408;2023-11-21T15:58:26;22.90;;;21.00;;
3036;SDS011;1528;52.550;13.408;2023-11-21T16:01:12;26.17;;;23.97;;
3036;SDS011;1528;52.550;13.408;2023-11-21T16:03:58;24.83;;;22.80;;
3036;SDS011;1528;52.550;13.408;2023-11-21T16:06:45;23.33;;;21.53;;
3036;SDS011;1528;52.550;13.408;2023-11-21T16:09:33;22.17;;;20.37;;
3036;SDS011;1528;52.550;13.408;2023-11-21T16:12:18;24.40;;;22.50;;
3036;SDS011;1528;52.550;13.408;2023-11-21T16:15:05;22.80;;;21.00;;
3036;SDS011;1528;52.550;13.408;2023-11-21T16:17:52;21.60;;;19.90;;
3036;SDS011;1528;52.550;13.408;2023-11-21T16:20:39;22.37;;;20.47;;
3036;SDS011;1528;52.550;13.408;2023-11-21T16:23:25;22.20;;;20.50;;
3036;SDS011;1528;52.550;13.408;2023-11-21T16:26:12;20.73;;;18.93;;
3036;SDS011;1528;52.550;13.408;2023-11-21T16:28:58;22.00;;;20.00;;
3036;SDS011;1528;52.550;13.408;2023-11-21T16:31:47;22.07;;;20.37;;
3036;SDS011;1528;52.550;13.408;2023-11-21T16:34:34;22.93;;;21.03;;
3036;SDS011;1528;52.550;13.408;2023-11-21T16:37:20;23.93;;;22.17;;
3036;SDS011;1528;52.550;13.408;2023-11-21T16:40:06;22.23;;;20.47;;
3036;SDS011;1528;52.550;13.408;2023-11-21T16:42:54;21.00;;;19.47;;
3036;SDS011;1528;52.550;13.408;2023-11-21T16:45:40;21.80;;;20.20;;
3036;SDS011;1528;52.550;13.408;2023-11-21T16:48:27;22.50;;;20.60;;
3036;SDS011;1528;52.550;13.408;2023-11-21T16:51:14;21.07;;;19.37;;